Hauptseite
METAR-TAF:

METAR-TAF

Flughäfen :

Clyde, Nunavut, Kanada

Breite: 70-29N, Länge: 068-31W, Höhe: 25 m

Beobachtung

Neuester Wetterbericht von vor 33 Minuten, um 02:00 UTC
Wind 2 kt aus unterschiedlichen Richtungen
Temperatur -33°C
Luftfeuchtigkeit 82%
Luftdruck 1006 hPa
Sichtweite: 14.5 km
Himmel klar

METAR: CYCY 180200Z AUTO VRB02KT 9SM CLR M33/M35 A2971 RMK SLP068

Zeit: 21:33 (02:33 UTC)

Prognose

Neuester Wetterbericht von vor 1 Stunde und 55 Minuten, um 00:38 UTC
Gültige Prognose vom 18 um 01 UTC bis 18 um 13 UTC
Wind 3 kt aus unterschiedlichen Richtungen
Sichtweite: 10 km
Leicht bewölkt in der Höhe von 12000 ft
Übergehend zu
vom 18 um 01 UTC bis 18 um 03 UTC
Wind 5 kt aus Süd/Südost

TAF: CYCY 180038Z 1801/1813 VRB03KT P6SM FEW120 BECMG 1801/1803 16005KT RMK FCST BASED ON AUTO OBS. NXT FCST BY 180700Z

Wetterbeobachtungen und Prognosen von mehr als 4000 Flughäfen (METAR und TAF Bericht).

Die verfügbaren Stationen werden durch gelbe und rote Markierungen auf der Karte dargestellt.

Führen Sie die Maus auf sie, um den Namen der Station zu sehen.

Darauf klicken, um die Beobachtung von Wetterbeobachtungen und Prognosen zu sehen.

Um die Karte zu ändern : klicken Sie auf den grünen Tasten mit einem schwarzen Kreuz Zum Vergrößern, auf den grünen Button mit einem Gedankenstrich zu verkleinern, oder auf die grünen Pfeile für benachbarte Karten.


METAR-TAF: